Terminal Aerodrome Forecast
Issued by NWS Atlanta, GA

Home | Current Version | Previous Version | Text Only | Print | Product List | Glossary On
Versions: 1 2 3 4 5 6 7 8 9 10 11 12 13 14 15 16
000
FTUS42 KFFC 222330
TAFCSG
TAF
KCSG 222330Z 2300/2324 25006KT P6SM VCSH SCT050
     FM230200 00000KT P6SM SCT250
     FM231600 27007KT P6SM VCSH BKN045 PROB30 2319/2322 4SM TSRA
      BKN035CB=

USA.gov is the U.S. government's official web portal to all federal, state and local government web resources and services.